Time;durP1;ratioP1;P1;durP2;ratioP2;P2;SDS_P1;SDS_P2;PMS_P1;PMS_P2;Temp;Humidity;BMP_temperature;BMP_pressure;BME280_temperature;BME280_humidity;BME280_pressure;Samples;Min_cycle;Max_cycle;Signal;HPM_P1;HPM_P2
2022/05/28 00:01:33;;;;;;;2.08;1.65;;;15.50;99.90;;;;;;4981488;28;20038;-89
2022/05/28 00:04:04;;;;;;;6.05;1.50;;;15.50;99.90;;;;;;4981628;28;20055;-89
2022/05/28 00:06:32;;;;;;;6.68;1.30;;;15.50;99.90;;;;;;4980921;28;20027;-89
2022/05/28 00:08:58;;;;;;;3.00;1.35;;;15.50;99.90;;;;;;4981413;28;20027;-90
2022/05/28 00:11:34;;;;;;;2.10;1.50;;;15.50;99.90;;;;;;4980346;28;20023;-87
2022/05/28 00:14:01;;;;;;;3.13;1.58;;;15.50;99.90;;;;;;4964888;28;20053;-89
2022/05/28 00:16:27;;;;;;;1.52;1.30;;;15.50;99.90;;;;;;4981267;28;20062;-89
2022/05/28 00:18:53;;;;;;;8.98;1.90;;;15.50;99.90;;;;;;4980665;28;20023;-90
2022/05/28 00:21:21;;;;;;;2.83;1.60;;;15.50;99.90;;;;;;4980181;28;20042;-89
2022/05/28 00:26:16;;;;;;;1.95;1.75;;;15.50;99.90;;;;;;5016414;23;20046;-84
2022/05/28 00:28:42;;;;;;;3.47;2.03;;;15.50;99.90;;;;;;4980343;28;20051;-85
2022/05/28 00:31:08;;;;;;;4.68;1.98;;;15.50;99.90;;;;;;4979261;28;20027;-85
2022/05/28 00:33:34;;;;;;;3.10;1.88;;;15.50;99.90;;;;;;4980563;28;20467;-87
2022/05/28 00:36:03;;;;;;;2.38;2.00;;;15.50;99.90;;;;;;4982452;28;20041;-88
2022/05/28 00:38:29;;;;;;;2.47;1.90;;;15.50;99.90;;;;;;4991188;28;20106;-85
2022/05/28 00:40:57;;;;;;;3.38;2.05;;;15.50;99.90;;;;;;4979866;28;20059;-85
2022/05/28 00:43:24;;;;;;;3.25;1.75;;;15.50;99.90;;;;;;4978362;28;20030;-86
2022/05/28 00:45:57;;;;;;;2.15;1.40;;;15.60;99.90;;;;;;4979273;28;20030;-84
2022/05/28 00:48:29;;;;;;;5.63;1.85;;;15.60;99.90;;;;;;4979237;28;20038;-83
2022/05/28 00:50:57;;;;;;;3.38;1.85;;;15.60;99.90;;;;;;4979931;28;20035;-85
2022/05/28 00:53:23;;;;;;;5.03;2.13;;;15.60;99.90;;;;;;4980192;28;20364;-87
2022/05/28 00:55:48;;;;;;;5.13;2.00;;;15.50;99.90;;;;;;4987042;28;20397;-85
2022/05/28 00:58:15;;;;;;;3.83;2.17;;;15.50;99.90;;;;;;4984506;28;20062;-84
2022/05/28 01:00:41;;;;;;;3.58;2.00;;;15.50;99.90;;;;;;4980195;28;20443;-86
2022/05/28 01:03:23;;;;;;;2.90;1.80;;;15.50;99.90;;;;;;4983815;28;20052;-84
2022/05/28 01:06:22;;;;;;;1.95;1.75;;;15.50;99.90;;;;;;4985693;28;20027;-83
2022/05/28 01:08:51;;;;;;;3.75;1.85;;;15.60;99.90;;;;;;4990606;28;20034;-84
2022/05/28 01:11:31;;;;;;;3.92;2.10;;;15.60;99.90;;;;;;4991495;28;20018;-85
2022/05/28 01:14:20;;;;;;;2.65;1.92;;;15.50;99.90;;;;;;4980479;28;20043;-84
2022/05/28 01:16:51;;;;;;;1.98;1.73;;;15.60;99.90;;;;;;4980269;28;20494;-85
2022/05/28 01:19:41;;;;;;;3.40;1.80;;;15.60;99.90;;;;;;4980777;28;20043;-85
2022/05/28 01:22:34;;;;;;;4.05;1.92;;;15.50;99.90;;;;;;4981300;28;20042;-84
2022/05/28 01:25:12;;;;;;;3.55;1.98;;;15.60;99.90;;;;;;4991632;28;20034;-84
2022/05/28 01:27:44;;;;;;;6.18;2.08;;;15.50;99.90;;;;;;4988482;28;20029;-86
2022/05/28 01:30:13;;;;;;;4.40;2.20;;;15.50;99.90;;;;;;4989820;28;20038;-86
2022/05/28 01:32:42;;;;;;;3.50;2.00;;;15.40;99.90;;;;;;4986321;28;20037;-83
2022/05/28 01:35:12;;;;;;;5.88;2.13;;;15.50;99.90;;;;;;4983782;28;20042;-84
2022/05/28 01:37:39;;;;;;;4.18;2.38;;;15.50;99.90;;;;;;4993847;28;20054;-84
2022/05/28 01:40:08;;;;;;;3.63;2.30;;;15.50;99.90;;;;;;4995103;28;20054;-84
2022/05/28 01:42:37;;;;;;;2.20;2.00;;;15.50;99.90;;;;;;4996676;28;20282;-86
2022/05/28 01:45:04;;;;;;;3.47;1.90;;;15.50;99.90;;;;;;4998677;28;20038;-85
2022/05/28 01:47:33;;;;;;;4.50;2.00;;;15.40;99.90;;;;;;4994133;28;20027;-85
2022/05/28 01:50:01;;;;;;;4.07;2.08;;;15.40;99.90;;;;;;4989967;28;20035;-86
2022/05/28 01:52:30;;;;;;;2.92;1.85;;;15.40;99.90;;;;;;4992624;28;20455;-85
2022/05/28 01:54:57;;;;;;;3.10;2.35;;;15.40;99.90;;;;;;4979705;28;20049;-85
2022/05/28 01:57:23;;;;;;;3.55;1.88;;;15.50;99.90;;;;;;4980998;28;20059;-84
2022/05/28 01:59:49;;;;;;;2.50;1.88;;;15.50;99.90;;;;;;4966327;28;20061;-85
2022/05/28 02:02:16;;;;;;;3.35;2.22;;;15.40;99.90;;;;;;4998470;28;20018;-86
2022/05/28 02:04:45;;;;;;;4.50;1.98;;;15.40;99.90;;;;;;4998562;28;20035;-86
2022/05/28 02:07:11;;;;;;;3.45;2.10;;;15.40;99.90;;;;;;4997817;28;20022;-87
2022/05/28 02:09:52;;;;;;;4.03;2.40;;;15.30;99.90;;;;;;4996379;28;20143;-84
2022/05/28 02:12:26;;;;;;;3.80;2.13;;;15.30;99.90;;;;;;4981822;28;20062;-86
2022/05/28 02:15:16;;;;;;;5.40;3.03;;;15.30;99.90;;;;;;4981408;28;20271;-84
2022/05/28 02:17:58;;;;;;;4.07;2.50;;;15.30;99.90;;;;;;4996606;28;20025;-83
2022/05/28 02:20:42;;;;;;;3.70;2.53;;;15.30;99.90;;;;;;4987979;28;20030;-84
2022/05/28 02:23:12;;;;;;;3.92;2.80;;;15.30;99.90;;;;;;4989646;28;20031;-86
2022/05/28 02:25:41;;;;;;;4.28;2.70;;;15.30;99.90;;;;;;4989253;28;20038;-84
2022/05/28 02:28:08;;;;;;;4.18;2.60;;;15.30;99.90;;;;;;5000531;28;20026;-86
2022/05/28 02:30:49;;;;;;;3.67;2.58;;;15.30;99.90;;;;;;5001609;28;20038;-86
2022/05/28 02:33:15;;;;;;;3.17;2.50;;;15.30;99.90;;;;;;5000996;28;20043;-85
2022/05/28 02:35:41;;;;;;;5.88;3.05;;;15.30;99.90;;;;;;5001588;28;20542;-87
2022/05/28 02:38:07;;;;;;;4.70;3.20;;;15.30;99.90;;;;;;5000505;28;20062;-87
2022/05/28 02:40:33;;;;;;;3.40;2.90;;;15.30;99.90;;;;;;4993382;28;20015;-86
2022/05/28 02:42:58;;;;;;;9.85;2.70;;;15.20;99.90;;;;;;4990904;28;20039;-85
2022/05/28 02:45:24;;;;;;;5.10;2.75;;;15.30;99.90;;;;;;4982163;28;20082;-85
2022/05/28 02:47:50;;;;;;;3.80;2.67;;;15.30;99.90;;;;;;4981696;28;20038;-85
2022/05/28 02:50:16;;;;;;;5.43;3.10;;;15.30;99.90;;;;;;4983331;28;20034;-83
2022/05/28 02:52:43;;;;;;;7.22;2.90;;;15.30;99.90;;;;;;4986984;28;20027;-84
2022/05/28 02:55:09;;;;;;;5.60;3.25;;;15.30;99.90;;;;;;4985135;28;20090;-85
2022/05/28 02:57:35;;;;;;;4.70;3.05;;;15.20;99.90;;;;;;4988705;28;20282;-84
2022/05/28 03:00:03;;;;;;;3.20;2.70;;;15.20;99.90;;;;;;4986761;28;20022;-85
2022/05/28 03:02:28;;;;;;;3.25;2.75;;;15.20;99.90;;;;;;4989540;28;20038;-85
2022/05/28 03:04:55;;;;;;;4.03;3.03;;;15.20;99.90;;;;;;4995635;28;20026;-85
2022/05/28 03:07:21;;;;;;;5.13;3.10;;;15.20;99.90;;;;;;4999470;28;20195;-84
2022/05/28 03:09:47;;;;;;;5.60;3.13;;;15.20;99.90;;;;;;4995849;28;20077;-85
2022/05/28 03:12:13;;;;;;;3.72;3.30;;;15.20;99.90;;;;;;4994850;28;20050;-86
2022/05/28 03:14:38;;;;;;;5.00;2.67;;;15.20;99.90;;;;;;4986212;28;20023;-85
2022/05/28 03:17:04;;;;;;;3.55;3.10;;;15.20;99.90;;;;;;4983599;28;20410;-85
2022/05/28 03:19:30;;;;;;;5.70;3.20;;;15.20;99.90;;;;;;4982657;28;20098;-85
2022/05/28 03:21:56;;;;;;;5.55;3.58;;;15.30;99.90;;;;;;4980789;28;20475;-85
2022/05/28 03:24:22;;;;;;;5.13;3.63;;;15.30;99.90;;;;;;4982187;28;20034;-86
2022/05/28 03:26:48;;;;;;;7.57;3.85;;;15.30;99.90;;;;;;4983705;28;20114;-85
2022/05/28 03:29:14;;;;;;;5.85;4.18;;;15.30;99.90;;;;;;4991049;28;20026;-84
2022/05/28 03:31:39;;;;;;;4.28;3.50;;;15.30;99.90;;;;;;4986830;28;20050;-84
2022/05/28 03:34:05;;;;;;;5.38;4.10;;;15.30;99.90;;;;;;4988997;28;20074;-85
2022/05/28 03:36:31;;;;;;;4.90;4.35;;;15.30;99.90;;;;;;4991467;28;20046;-85
2022/05/28 03:38:57;;;;;;;8.63;4.95;;;15.30;99.90;;;;;;4996072;28;20026;-85
2022/05/28 03:41:24;;;;;;;8.90;5.35;;;15.30;99.90;;;;;;4984073;28;20035;-85
2022/05/28 03:43:49;;;;;;;5.15;4.65;;;15.30;99.90;;;;;;4984644;28;20054;-83
2022/05/28 03:46:21;;;;;;;9.02;5.70;;;15.20;99.90;;;;;;4987923;28;20054;-83
2022/05/28 03:48:47;;;;;;;10.18;5.80;;;15.10;99.90;;;;;;4993294;28;20054;-86
2022/05/28 03:51:12;;;;;;;6.35;5.63;;;15.10;99.90;;;;;;4978797;28;20026;-85
2022/05/28 03:53:38;;;;;;;8.80;6.95;;;15.10;99.90;;;;;;4996639;28;20090;-87
2022/05/28 03:56:04;;;;;;;7.30;5.90;;;15.10;99.90;;;;;;4997845;28;20059;-85
2022/05/28 03:58:30;;;;;;;7.97;6.30;;;15.10;99.90;;;;;;4995298;28;20035;-83
2022/05/28 04:00:56;;;;;;;8.60;6.35;;;15.10;99.90;;;;;;4994535;28;20090;-84
2022/05/28 04:03:21;;;;;;;8.70;6.10;;;15.10;99.90;;;;;;4996139;28;20011;-85
2022/05/28 04:05:47;;;;;;;9.93;6.55;;;15.10;99.90;;;;;;4995725;28;20031;-85
2022/05/28 04:08:13;;;;;;;8.48;6.47;;;15.10;99.90;;;;;;4996153;28;20046;-85
2022/05/28 04:10:39;;;;;;;7.63;6.43;;;15.20;99.90;;;;;;4996431;28;20019;-85
2022/05/28 04:13:04;;;;;;;8.15;6.28;;;15.20;99.90;;;;;;4996750;28;20034;-85
2022/05/28 04:15:32;;;;;;;7.97;6.22;;;15.20;99.90;;;;;;4996233;28;20015;-84
2022/05/28 04:17:59;;;;;;;7.53;5.45;;;15.20;99.90;;;;;;4996619;28;20050;-85
2022/05/28 04:20:25;;;;;;;6.07;4.10;;;15.10;99.90;;;;;;4999015;28;20030;-84
2022/05/28 04:22:51;;;;;;;4.63;3.75;;;15.00;99.90;;;;;;5000233;28;20038;-84
2022/05/28 04:25:17;;;;;;;6.70;3.30;;;15.00;99.90;;;;;;4995207;28;20038;-85
2022/05/28 04:27:43;;;;;;;4.28;3.22;;;15.00;99.90;;;;;;4994164;28;20034;-86
2022/05/28 04:30:10;;;;;;;8.13;2.90;;;15.00;99.90;;;;;;4994838;28;20086;-85
2022/05/28 04:32:36;;;;;;;4.70;2.88;;;15.00;99.90;;;;;;4996392;28;20023;-84
2022/05/28 04:35:01;;;;;;;3.28;2.40;;;15.00;99.90;;;;;;4990975;28;20065;-85
2022/05/28 04:37:27;;;;;;;10.40;2.78;;;14.90;99.90;;;;;;4996583;28;20031;-83
2022/05/28 04:39:53;;;;;;;5.50;3.45;;;14.90;99.90;;;;;;4997588;28;20034;-86
2022/05/28 04:42:18;;;;;;;4.60;3.17;;;15.00;99.90;;;;;;5000481;28;20053;-85
2022/05/28 04:44:44;;;;;;;4.50;2.40;;;14.90;99.90;;;;;;5000329;28;20043;-85
2022/05/28 04:47:10;;;;;;;4.18;2.35;;;14.90;99.90;;;;;;5000240;28;20038;-87
2022/05/28 04:49:36;;;;;;;5.32;2.38;;;14.90;99.90;;;;;;4978477;28;20073;-84
2022/05/28 04:52:02;;;;;;;5.28;2.67;;;14.80;99.90;;;;;;4988895;28;20035;-85
2022/05/28 04:54:27;;;;;;;5.88;2.63;;;14.80;99.90;;;;;;4986598;28;20059;-84
2022/05/28 04:56:53;;;;;;;7.05;2.65;;;14.80;99.90;;;;;;4988704;28;20042;-84
2022/05/28 04:59:19;;;;;;;4.32;2.72;;;14.80;99.90;;;;;;4990199;28;20019;-83
2022/05/28 05:01:45;;;;;;;4.43;2.17;;;14.80;99.90;;;;;;4991634;28;20078;-84
2022/05/28 05:04:10;;;;;;;5.45;2.83;;;14.90;99.90;;;;;;4985707;28;20110;-85
2022/05/28 05:06:36;;;;;;;5.57;2.65;;;15.00;99.90;;;;;;4986729;28;20093;-87
2022/05/28 05:09:02;;;;;;;5.65;3.15;;;15.00;99.90;;;;;;4993238;28;20046;-85
2022/05/28 05:11:28;;;;;;;3.08;2.30;;;15.10;99.90;;;;;;4980909;28;20065;-85
2022/05/28 05:13:54;;;;;;;4.63;2.63;;;15.10;99.90;;;;;;4979542;28;20027;-86
2022/05/28 05:16:20;;;;;;;4.18;2.85;;;15.20;99.90;;;;;;4981179;28;20035;-85
2022/05/28 05:18:46;;;;;;;6.55;2.47;;;15.30;99.90;;;;;;4979538;28;20040;-87
2022/05/28 05:21:12;;;;;;;4.18;2.70;;;15.20;99.90;;;;;;4986587;28;20031;-87
2022/05/28 05:23:41;;;;;;;4.43;2.60;;;15.30;99.90;;;;;;4971608;28;20046;-85
2022/05/28 05:26:25;;;;;;;2.83;2.42;;;15.40;99.90;;;;;;4988533;28;20060;-85
2022/05/28 05:28:51;;;;;;;4.82;2.65;;;15.40;99.90;;;;;;4990662;28;20462;-85
2022/05/28 05:31:17;;;;;;;3.45;2.40;;;15.40;99.90;;;;;;4972857;28;20033;-84
2022/05/28 05:33:43;;;;;;;4.78;2.35;;;15.60;99.90;;;;;;4987964;28;20033;-84
2022/05/28 05:36:09;;;;;;;3.05;2.13;;;15.80;99.90;;;;;;4997460;28;20015;-86
2022/05/28 05:38:36;;;;;;;2.90;2.30;;;15.90;99.90;;;;;;4987448;28;20043;-85
2022/05/28 05:41:02;;;;;;;4.63;2.28;;;16.00;99.90;;;;;;4996619;28;20034;-87
2022/05/28 05:43:28;;;;;;;3.92;2.28;;;16.10;99.90;;;;;;4998667;28;20090;-87
2022/05/28 05:45:59;;;;;;;2.95;2.40;;;16.10;99.90;;;;;;4998974;28;20030;-87
2022/05/28 05:48:27;;;;;;;7.28;2.25;;;16.10;99.90;;;;;;4997769;28;20034;-85
2022/05/28 05:50:52;;;;;;;5.82;2.28;;;16.10;99.90;;;;;;4985737;28;20023;-84
2022/05/28 05:53:19;;;;;;;4.82;2.10;;;16.10;99.90;;;;;;4983994;28;20030;-84
2022/05/28 05:55:45;;;;;;;5.88;2.35;;;16.20;99.90;;;;;;4984536;28;20034;-85
2022/05/28 05:58:11;;;;;;;6.40;3.08;;;16.30;99.90;;;;;;4992715;28;20231;-85
2022/05/28 06:00:37;;;;;;;2.67;2.10;;;16.40;99.90;;;;;;4992855;28;20019;-85
2022/05/28 06:03:03;;;;;;;3.83;1.85;;;16.50;99.90;;;;;;4984553;28;20125;-85
2022/05/28 06:05:29;;;;;;;5.65;2.53;;;16.50;99.90;;;;;;4981696;28;20054;-86
2022/05/28 06:07:55;;;;;;;4.25;2.25;;;16.50;99.90;;;;;;4980214;28;20618;-85
2022/05/28 06:10:21;;;;;;;6.35;2.30;;;16.40;99.90;;;;;;4986536;28;20045;-85
2022/05/28 06:12:46;;;;;;;5.18;1.77;;;16.50;99.90;;;;;;4980419;28;20034;-85
2022/05/28 06:15:12;;;;;;;4.75;2.90;;;16.60;99.90;;;;;;4980979;28;20026;-85
2022/05/28 06:17:38;;;;;;;6.65;3.33;;;16.80;99.90;;;;;;4978891;28;20052;-85
2022/05/28 06:20:10;;;;;;;7.68;3.33;;;17.10;99.90;;;;;;4982663;28;20026;-88
2022/05/28 06:22:36;;;;;;;3.83;2.40;;;17.30;99.90;;;;;;4996710;28;20035;-85
2022/05/28 06:25:03;;;;;;;4.30;2.40;;;17.30;99.90;;;;;;4972253;23;1214196;-88
2022/05/28 06:27:29;;;;;;;7.93;2.67;;;17.40;99.90;;;;;;4978397;28;20040;-86
2022/05/28 06:29:54;;;;;;;4.28;2.40;;;17.60;99.90;;;;;;4977948;28;20046;-86
2022/05/28 06:32:20;;;;;;;4.32;2.38;;;17.60;99.90;;;;;;4977925;28;20020;-88
2022/05/28 06:34:46;;;;;;;4.00;2.50;;;17.70;99.90;;;;;;4978002;28;20019;-87
2022/05/28 06:37:13;;;;;;;4.25;2.20;;;17.80;99.90;;;;;;4979595;28;20045;-87
2022/05/28 06:39:39;;;;;;;6.00;2.58;;;18.00;99.90;;;;;;4963127;29;20030;-87
2022/05/28 06:42:06;;;;;;;5.35;2.58;;;18.20;99.90;;;;;;4979048;28;20087;-89
2022/05/28 06:44:32;;;;;;;5.95;2.33;;;18.30;99.90;;;;;;4978700;28;20019;-87
2022/05/28 06:46:58;;;;;;;5.32;2.70;;;18.30;99.90;;;;;;4979296;28;20015;-88
2022/05/28 06:49:24;;;;;;;7.72;2.72;;;18.20;99.90;;;;;;4978252;28;20046;-87
2022/05/28 06:51:51;;;;;;;7.65;3.50;;;18.10;99.90;;;;;;4978771;28;20115;-86
2022/05/28 06:54:17;;;;;;;3.15;2.10;;;18.00;99.90;;;;;;4978355;28;20070;-87
2022/05/28 06:56:43;;;;;;;10.25;3.15;;;17.90;99.90;;;;;;4994299;28;20034;-86
2022/05/28 06:59:09;;;;;;;7.50;2.55;;;17.80;99.90;;;;;;4977574;28;20015;-86
2022/05/28 07:01:36;;;;;;;6.88;2.13;;;17.70;99.90;;;;;;4977599;28;20047;-87
2022/05/28 07:04:02;;;;;;;6.72;2.47;;;17.70;99.90;;;;;;4978647;28;20018;-87
2022/05/28 07:06:29;;;;;;;8.98;2.58;;;17.60;99.90;;;;;;4978122;28;20038;-88
2022/05/28 07:08:55;;;;;;;4.90;2.47;;;17.50;99.90;;;;;;4961689;29;20027;-87
2022/05/28 07:11:21;;;;;;;4.07;2.40;;;17.30;99.90;;;;;;4978141;28;20073;-86
2022/05/28 07:13:47;;;;;;;11.00;2.63;;;17.30;99.90;;;;;;4980307;28;20027;-87
2022/05/28 07:16:13;;;;;;;5.97;2.40;;;17.10;99.90;;;;;;4981565;28;20031;-85
2022/05/28 07:18:40;;;;;;;8.40;3.08;;;17.00;99.90;;;;;;4982192;28;20104;-87
2022/05/28 07:21:07;;;;;;;5.57;2.42;;;17.10;99.90;;;;;;4981963;28;20043;-88
2022/05/28 07:23:34;;;;;;;4.38;2.33;;;17.20;99.90;;;;;;4981424;28;20078;-85
2022/05/28 07:26:09;;;;;;;7.68;2.20;;;17.30;99.90;;;;;;4981201;28;20043;-86
2022/05/28 07:28:36;;;;;;;;;;;17.50;99.90;;;;;;4982785;28;20042;-88
2022/05/28 07:31:09;;;;;;;6.68;2.80;;;17.70;99.90;;;;;;4980297;28;19898;-86
2022/05/28 07:33:41;;;;;;;7.60;2.88;;;17.70;99.90;;;;;;4977942;28;20023;-88
2022/05/28 07:36:14;;;;;;;5.80;2.72;;;17.70;99.90;;;;;;4979020;28;20086;-86
2022/05/28 07:38:42;;;;;;;7.20;2.78;;;17.50;99.90;;;;;;4996681;28;20111;-88
2022/05/28 07:41:15;;;;;;;7.45;2.88;;;17.40;99.90;;;;;;4981003;28;20034;-87
2022/05/28 07:43:42;;;;;;;10.95;3.25;;;17.40;99.90;;;;;;4980852;28;20067;-87
2022/05/28 07:46:14;;;;;;;9.02;2.90;;;17.50;99.90;;;;;;4996818;28;20034;-87
2022/05/28 07:48:40;;;;;;;7.55;2.47;;;17.70;99.90;;;;;;4981423;28;20043;-86
2022/05/28 07:51:07;;;;;;;7.05;2.90;;;17.90;99.90;;;;;;4975348;28;20019;-89
2022/05/28 07:53:34;;;;;;;5.82;2.30;;;18.00;99.90;;;;;;4989403;28;20082;-88
2022/05/28 07:56:01;;;;;;;5.68;2.55;;;18.10;99.90;;;;;;4979449;28;20038;-87
2022/05/28 07:58:27;;;;;;;7.50;2.30;;;18.40;99.90;;;;;;4996308;28;20172;-89
2022/05/28 08:00:52;;;;;;;5.07;2.25;;;18.60;99.90;;;;;;4980620;28;20023;-86
2022/05/28 08:03:19;;;;;;;6.60;2.20;;;18.80;99.90;;;;;;4980664;28;20058;-87
2022/05/28 08:05:48;;;;;;;6.78;2.70;;;18.70;99.90;;;;;;4980377;28;20039;-88
2022/05/28 08:08:14;;;;;;;10.38;3.13;;;18.70;99.90;;;;;;4981407;28;20019;-89
2022/05/28 08:10:41;;;;;;;8.35;2.65;;;18.60;99.90;;;;;;4980955;28;20034;-87
2022/05/28 08:13:13;;;;;;;5.65;2.17;;;18.40;99.90;;;;;;4979112;28;20038;-88
2022/05/28 08:15:41;;;;;;;5.13;2.42;;;18.10;99.90;;;;;;4974711;28;20098;-89
2022/05/28 08:18:08;;;;;;;9.38;2.60;;;18.10;99.90;;;;;;4972227;28;20011;-88
2022/05/28 08:23:19;;;;;;;;;;;18.00;99.90;;;;;;4973734;28;20038;-90
2022/05/28 08:25:46;;;;;;;7.38;2.28;;;18.00;99.90;;;;;;4975793;28;19918;-91
2022/05/28 08:28:14;;;;;;;7.07;2.33;;;18.20;99.90;;;;;;4972507;28;20043;-90
2022/05/28 08:30:41;;;;;;;8.52;2.25;;;18.40;99.90;;;;;;4973739;28;20038;-89
2022/05/28 08:33:08;;;;;;;10.70;2.17;;;18.70;99.90;;;;;;4977178;28;20019;-88
2022/05/28 08:35:36;;;;;;;7.05;2.20;;;18.90;99.90;;;;;;4977070;28;20038;-90
2022/05/28 08:38:04;;;;;;;7.45;2.25;;;18.90;99.90;;;;;;4961332;29;20062;-88
2022/05/28 08:40:33;;;;;;;6.38;1.90;;;18.90;99.90;;;;;;4976444;28;20127;-90
2022/05/28 08:43:00;;;;;;;7.30;2.40;;;19.00;99.60;;;;;;4995128;28;20138;-90
2022/05/28 08:45:26;;;;;;;8.52;2.17;;;19.20;99.40;;;;;;4979607;28;20043;-88
2022/05/28 08:47:55;;;;;;;4.78;1.98;;;19.50;98.20;;;;;;4978964;28;20023;-87
2022/05/28 08:50:21;;;;;;;6.07;2.10;;;19.50;97.20;;;;;;4995494;28;20031;-89
2022/05/28 08:53:05;;;;;;;6.13;2.45;;;19.60;96.80;;;;;;4995886;28;20023;-88
2022/05/28 08:55:50;;;;;;;7.63;1.95;;;19.90;96.90;;;;;;4979802;28;20027;-87
2022/05/28 08:58:29;;;;;;;11.85;2.83;;;20.20;96.00;;;;;;4980701;28;20050;-87
2022/05/28 09:01:10;;;;;;;8.38;2.30;;;20.20;95.10;;;;;;4980502;28;20031;-87
2022/05/28 09:03:41;;;;;;;7.43;2.42;;;20.20;94.30;;;;;;4979890;28;20023;-88
2022/05/28 09:06:23;;;;;;;7.28;2.00;;;20.20;94.00;;;;;;4979501;28;20095;-88
2022/05/28 09:08:51;;;;;;;11.77;2.28;;;20.40;94.40;;;;;;4995233;28;20031;-87
2022/05/28 09:11:21;;;;;;;12.23;2.50;;;20.60;93.90;;;;;;4979477;28;20066;-86
2022/05/28 09:13:51;;;;;;;8.20;2.00;;;20.80;93.40;;;;;;4979461;28;20043;-87
2022/05/28 09:16:32;;;;;;;9.45;2.35;;;20.70;92.80;;;;;;4976908;28;20038;-89
2022/05/28 09:19:15;;;;;;;8.60;2.00;;;20.60;92.70;;;;;;4973627;28;20038;-86
2022/05/28 09:21:43;;;;;;;9.98;2.35;;;20.40;92.80;;;;;;4978870;28;20031;-88
2022/05/28 09:24:24;;;;;;;9.48;2.30;;;20.20;93.00;;;;;;4978345;28;20027;-88
2022/05/28 09:27:09;;;;;;;8.50;2.47;;;20.20;93.00;;;;;;4976633;28;20035;-89
2022/05/28 09:30:00;;;;;;;10.70;2.20;;;20.20;93.00;;;;;;4972018;28;20503;-89
2022/05/28 09:32:36;;;;;;;7.80;1.95;;;20.10;93.30;;;;;;4974128;28;20047;-88
2022/05/28 09:35:13;;;;;;;13.00;2.90;;;20.30;93.00;;;;;;4961162;28;20019;-88
2022/05/28 09:38:17;;;;;;;7.90;1.98;;;20.50;92.90;;;;;;4977607;28;20133;-88
2022/05/28 09:41:00;;;;;;;6.45;1.80;;;20.90;92.60;;;;;;4974854;28;20039;-88
2022/05/28 09:43:48;;;;;;;12.02;4.43;;;20.70;92.20;;;;;;4975876;28;20043;-89
2022/05/28 09:46:37;;;;;;;8.20;1.88;;;20.90;92.60;;;;;;4976011;28;20463;-88
2022/05/28 09:49:10;;;;;;;7.45;1.85;;;21.10;92.10;;;;;;4957622;29;20039;-90
2022/05/28 09:51:36;;;;;;;5.85;2.60;;;21.70;91.50;;;;;;4974600;28;20288;-89
2022/05/28 09:54:20;;;;;;;6.90;2.33;;;21.90;91.30;;;;;;4973795;29;20042;-88
2022/05/28 09:57:24;;;;;;;6.90;2.03;;;22.10;90.50;;;;;;4977748;28;20035;-87
2022/05/28 09:59:55;;;;;;;6.65;1.95;;;22.20;90.50;;;;;;4965840;28;20099;-88
2022/05/28 10:02:34;;;;;;;5.57;2.00;;;22.20;90.20;;;;;;4978409;28;20054;-84
2022/05/28 10:05:16;;;;;;;4.85;1.80;;;21.70;90.50;;;;;;4962470;28;20039;-87
2022/05/28 10:07:53;;;;;;;5.20;1.58;;;21.80;90.60;;;;;;4994295;28;20020;-87
2022/05/28 10:10:21;;;;;;;8.73;2.03;;;22.10;89.50;;;;;;4978877;28;20038;-88
2022/05/28 10:12:48;;;;;;;7.03;1.70;;;22.50;88.80;;;;;;4978500;28;20030;-87
2022/05/28 10:15:37;;;;;;;8.05;1.92;;;22.70;87.90;;;;;;4978926;28;20047;-87
2022/05/28 10:18:15;;;;;;;7.55;2.03;;;23.30;87.20;;;;;;4977955;28;20114;-87
2022/05/28 10:20:41;;;;;;;5.78;2.00;;;25.00;83.70;;;;;;4978528;28;20103;-88
2022/05/28 10:23:16;;;;;;;7.20;2.20;;;24.60;81.50;;;;;;4978691;28;20047;-87
2022/05/28 10:25:50;;;;;;;5.95;1.90;;;24.00;83.30;;;;;;4977865;28;20043;-87
2022/05/28 10:28:55;;;;;;;8.50;2.22;;;24.10;81.10;;;;;;4978473;28;20059;-87
2022/05/28 10:31:35;;;;;;;6.00;1.92;;;23.50;81.70;;;;;;4978797;28;20043;-88
2022/05/28 10:34:01;;;;;;;3.95;1.60;;;23.10;82.00;;;;;;4978006;28;20039;-87
2022/05/28 10:36:30;;;;;;;7.18;2.00;;;22.50;83.30;;;;;;4977815;28;20080;-88
2022/05/28 10:39:16;;;;;;;7.65;1.73;;;21.70;84.40;;;;;;4991636;28;20073;-89
2022/05/28 10:41:43;;;;;;;3.53;1.50;;;21.30;85.10;;;;;;4972017;28;20042;-90
2022/05/28 10:44:15;;;;;;;8.90;2.15;;;22.90;84.10;;;;;;4973370;28;20094;-92
2022/05/28 10:46:58;;;;;;;4.43;1.88;;;23.60;82.00;;;;;;4976460;28;20051;-89
2022/05/28 10:49:39;;;;;;;4.15;1.63;;;22.80;83.60;;;;;;4980926;28;20046;-87
2022/05/28 10:52:27;;;;;;;6.15;2.10;;;24.50;80.20;;;;;;4982105;28;20050;-88
2022/05/28 10:55:07;;;;;;;4.57;1.90;;;25.60;76.70;;;;;;4982593;28;20058;-90
2022/05/28 10:57:42;;;;;;;9.18;2.08;;;24.90;76.90;;;;;;4998372;28;20034;-87
2022/05/28 11:00:27;;;;;;;7.05;2.10;;;23.10;79.40;;;;;;4981779;28;20039;-87
2022/05/28 11:03:01;;;;;;;9.75;2.28;;;22.20;81.40;;;;;;4981974;28;20012;-88
2022/05/28 11:05:48;;;;;;;6.43;1.70;;;22.00;82.50;;;;;;4981678;28;20020;-88
2022/05/28 11:08:22;;;;;;;6.35;1.80;;;21.90;82.40;;;;;;4981774;28;20074;-88
2022/05/28 11:10:56;;;;;;;4.95;2.00;;;21.50;82.50;;;;;;4981958;28;20040;-87
2022/05/28 11:13:46;;;;;;;7.10;2.03;;;21.30;82.80;;;;;;4981910;28;20043;-88
2022/05/28 11:16:39;;;;;;;5.00;1.83;;;21.10;83.80;;;;;;4980986;28;20047;-88
2022/05/28 11:19:18;;;;;;;4.82;1.63;;;20.90;84.60;;;;;;4980356;28;20090;-88
2022/05/28 11:22:06;;;;;;;4.50;2.10;;;20.70;85.70;;;;;;4979513;28;20023;-87
2022/05/28 11:24:32;;;;;;;6.78;1.90;;;20.40;86.30;;;;;;4978353;28;20062;-89
2022/05/28 11:27:19;;;;;;;10.50;2.10;;;20.20;87.50;;;;;;4981022;28;20030;-90
2022/05/28 11:29:57;;;;;;;5.25;1.92;;;19.90;89.10;;;;;;4975427;28;20035;-90
2022/05/28 11:32:49;;;;;;;6.13;1.70;;;19.70;88.80;;;;;;4970923;28;20042;-91
2022/05/28 11:35:39;;;;;;;5.68;1.60;;;19.60;88.90;;;;;;4970495;29;20069;-89
2022/05/28 11:38:18;;;;;;;4.53;1.88;;;19.60;89.40;;;;;;4975100;28;20034;-90
2022/05/28 11:41:07;;;;;;;4.32;2.00;;;19.70;88.80;;;;;;4987520;28;20032;-90
2022/05/28 11:43:58;;;;;;;8.02;2.30;;;20.00;88.60;;;;;;4971494;28;20434;-89
2022/05/28 11:46:27;;;;;;;7.38;2.00;;;20.20;88.30;;;;;;4971263;28;20136;-88
2022/05/28 11:52:12;;;;;;;3.50;1.70;;;20.00;89.00;;;;;;4971588;28;20019;-90
2022/05/28 11:54:46;;;;;;;9.05;2.00;;;19.80;89.10;;;;;;4978409;28;20043;-86
2022/05/28 11:57:45;;;;;;;4.93;1.98;;;19.60;88.80;;;;;;4971133;29;20123;-87
2022/05/28 12:00:15;;;;;;;9.27;2.17;;;19.60;89.10;;;;;;4960808;28;20035;-88
2022/05/28 12:02:50;;;;;;;6.03;2.25;;;19.20;90.10;;;;;;4978788;28;20034;-89
2022/05/28 12:05:24;;;;;;;5.80;1.80;;;19.00;89.70;;;;;;4994222;28;20067;-89
2022/05/28 12:08:02;;;;;;;5.88;2.28;;;18.90;90.30;;;;;;4991216;28;20066;-88
2022/05/28 12:10:51;;;;;;;7.40;2.40;;;18.80;90.40;;;;;;4980368;28;20071;-88
2022/05/28 12:13:51;;;;;;;12.23;2.40;;;18.70;90.60;;;;;;4996185;28;20047;-87
2022/05/28 12:16:17;;;;;;;6.15;1.98;;;18.40;91.00;;;;;;4957265;28;20027;-89
2022/05/28 12:18:55;;;;;;;6.40;2.40;;;18.20;91.70;;;;;;4979834;28;20067;-88
2022/05/28 12:21:30;;;;;;;3.90;2.50;;;18.10;92.50;;;;;;4980967;28;20043;-87
2022/05/28 12:24:18;;;;;;;10.40;2.88;;;18.40;92.40;;;;;;4980188;28;20023;-87
2022/05/28 12:27:13;;;;;;;6.72;3.22;;;18.70;91.90;;;;;;4997909;23;20094;-83
2022/05/28 12:30:00;;;;;;;6.53;2.90;;;18.90;91.60;;;;;;4989302;28;20098;-83
2022/05/28 12:32:49;;;;;;;5.82;2.28;;;19.20;91.30;;;;;;4990759;28;20042;-81
2022/05/28 12:35:15;;;;;;;4.70;1.52;;;18.60;90.50;;;;;;4983800;28;20039;-83
2022/05/28 12:38:09;;;;;;;5.32;1.92;;;18.50;90.20;;;;;;4989080;28;20031;-85
2022/05/28 12:40:55;;;;;;;4.22;1.60;;;18.50;90.30;;;;;;4991672;28;20379;-85
2022/05/28 12:43:49;;;;;;;3.35;1.55;;;18.70;90.10;;;;;;4984861;28;20027;-82
2022/05/28 12:46:37;;;;;;;5.43;1.73;;;18.70;89.80;;;;;;4981550;28;20039;-84
2022/05/28 12:49:10;;;;;;;9.23;1.85;;;18.50;90.10;;;;;;4986360;28;20098;-83
2022/05/28 12:51:45;;;;;;;5.00;1.88;;;18.10;90.30;;;;;;4992839;28;20037;-82
2022/05/28 12:54:26;;;;;;;5.78;2.22;;;17.90;90.80;;;;;;4992350;28;20027;-83
2022/05/28 12:57:14;;;;;;;6.47;2.10;;;17.50;91.40;;;;;;4988602;28;20518;-83
2022/05/28 12:59:44;;;;;;;5.65;1.92;;;17.70;91.60;;;;;;4989025;28;20031;-82
2022/05/28 13:02:16;;;;;;;4.53;1.70;;;17.60;91.30;;;;;;4985510;28;20027;-82
2022/05/28 13:05:07;;;;;;;3.55;1.65;;;17.50;91.30;;;;;;4989223;28;20066;-83
2022/05/28 13:07:43;;;;;;;9.40;2.00;;;17.60;91.20;;;;;;4993955;28;20034;-83
2022/05/28 13:10:22;;;;;;;5.80;1.80;;;17.80;91.00;;;;;;4992769;28;20372;-84
2022/05/28 13:13:03;;;;;;;10.10;1.80;;;17.90;90.90;;;;;;4992462;28;20035;-83
2022/05/28 13:15:47;;;;;;;4.93;2.28;;;17.70;90.80;;;;;;4992457;28;20034;-83
2022/05/28 13:18:32;;;;;;;3.15;1.75;;;17.60;90.90;;;;;;4988647;28;20150;-85